sensor_id;sensor_type;location;lat;lon;timestamp;temperature;humidity
37642;DHT22;23486;51.956;5.888;2023-03-14T00:00:36;12.10;99.90
37642;DHT22;23486;51.956;5.888;2023-03-14T00:03:01;12.10;99.90
37642;DHT22;23486;51.956;5.888;2023-03-14T00:05:27;12.00;99.90
37642;DHT22;23486;51.956;5.888;2023-03-14T00:07:53;12.00;99.90
37642;DHT22;23486;51.956;5.888;2023-03-14T00:10:18;12.00;99.90
37642;DHT22;23486;51.956;5.888;2023-03-14T00:12:44;12.00;99.90
37642;DHT22;23486;51.956;5.888;2023-03-14T00:15:11;12.00;99.90
37642;DHT22;23486;51.956;5.888;2023-03-14T00:17:37;11.90;99.90
37642;DHT22;23486;51.956;5.888;2023-03-14T00:20:05;12.00;99.90
37642;DHT22;23486;51.956;5.888;2023-03-14T00:22:37;12.00;99.90
37642;DHT22;23486;51.956;5.888;2023-03-14T00:25:03;11.90;99.90
37642;DHT22;23486;51.956;5.888;2023-03-14T00:27:29;11.90;99.90
37642;DHT22;23486;51.956;5.888;2023-03-14T00:29:55;11.90;99.90
37642;DHT22;23486;51.956;5.888;2023-03-14T00:32:21;11.80;99.90
37642;DHT22;23486;51.956;5.888;2023-03-14T00:34:46;11.80;99.90
37642;DHT22;23486;51.956;5.888;2023-03-14T00:37:13;11.70;99.90
37642;DHT22;23486;51.956;5.888;2023-03-14T00:39:39;11.60;99.90
37642;DHT22;23486;51.956;5.888;2023-03-14T00:42:04;11.60;99.90
37642;DHT22;23486;51.956;5.888;2023-03-14T00:44:33;11.50;99.90
37642;DHT22;23486;51.956;5.888;2023-03-14T00:46:59;11.40;99.90
37642;DHT22;23486;51.956;5.888;2023-03-14T00:49:24;11.50;99.90
37642;DHT22;23486;51.956;5.888;2023-03-14T00:51:50;11.50;99.90
37642;DHT22;23486;51.956;5.888;2023-03-14T00:54:20;11.50;99.90
37642;DHT22;23486;51.956;5.888;2023-03-14T00:56:46;11.50;99.90
37642;DHT22;23486;51.956;5.888;2023-03-14T00:59:12;11.40;99.90
37642;DHT22;23486;51.956;5.888;2023-03-14T01:01:38;11.40;99.90
37642;DHT22;23486;51.956;5.888;2023-03-14T01:04:04;11.30;99.90
37642;DHT22;23486;51.956;5.888;2023-03-14T01:06:30;11.30;99.90
37642;DHT22;23486;51.956;5.888;2023-03-14T01:08:56;11.30;99.90
37642;DHT22;23486;51.956;5.888;2023-03-14T01:11:25;11.30;99.90
37642;DHT22;23486;51.956;5.888;2023-03-14T01:13:51;11.30;99.90
37642;DHT22;23486;51.956;5.888;2023-03-14T01:16:19;11.30;99.90
37642;DHT22;23486;51.956;5.888;2023-03-14T01:18:46;11.30;99.90
37642;DHT22;23486;51.956;5.888;2023-03-14T01:21:20;11.30;99.90
37642;DHT22;23486;51.956;5.888;2023-03-14T01:23:47;11.30;99.90
37642;DHT22;23486;51.956;5.888;2023-03-14T01:26:15;11.30;99.90
37642;DHT22;23486;51.956;5.888;2023-03-14T01:28:41;11.30;99.90
37642;DHT22;23486;51.956;5.888;2023-03-14T01:31:08;11.30;99.90
37642;DHT22;23486;51.956;5.888;2023-03-14T01:33:35;11.20;99.90
37642;DHT22;23486;51.956;5.888;2023-03-14T01:36:00;11.20;99.90
37642;DHT22;23486;51.956;5.888;2023-03-14T01:38:30;11.30;99.90
37642;DHT22;23486;51.956;5.888;2023-03-14T01:40:56;11.30;99.90
37642;DHT22;23486;51.956;5.888;2023-03-14T01:43:21;11.30;99.90
37642;DHT22;23486;51.956;5.888;2023-03-14T01:51:17;11.20;99.90
37642;DHT22;23486;51.956;5.888;2023-03-14T01:53:45;11.20;99.90
37642;DHT22;23486;51.956;5.888;2023-03-14T01:56:13;11.10;99.90
37642;DHT22;23486;51.956;5.888;2023-03-14T01:58:41;11.10;99.90
37642;DHT22;23486;51.956;5.888;2023-03-14T02:01:09;11.10;99.90
37642;DHT22;23486;51.956;5.888;2023-03-14T02:03:41;11.10;99.90
37642;DHT22;23486;51.956;5.888;2023-03-14T02:06:11;11.10;99.90
37642;DHT22;23486;51.956;5.888;2023-03-14T02:08:37;11.00;99.90
37642;DHT22;23486;51.956;5.888;2023-03-14T02:11:05;10.90;99.90
37642;DHT22;23486;51.956;5.888;2023-03-14T02:13:32;10.80;99.90
37642;DHT22;23486;51.956;5.888;2023-03-14T02:16:01;10.80;99.90
37642;DHT22;23486;51.956;5.888;2023-03-14T02:18:26;10.70;99.90
37642;DHT22;23486;51.956;5.888;2023-03-14T02:26:06;10.40;99.90
37642;DHT22;23486;51.956;5.888;2023-03-14T02:28:33;10.20;99.90
37642;DHT22;23486;51.956;5.888;2023-03-14T02:30:59;10.10;99.90
37642;DHT22;23486;51.956;5.888;2023-03-14T02:33:24;10.00;99.90
37642;DHT22;23486;51.956;5.888;2023-03-14T02:35:57;10.00;99.90
37642;DHT22;23486;51.956;5.888;2023-03-14T02:41:07;9.90;99.90
37642;DHT22;23486;51.956;5.888;2023-03-14T02:43:32;9.80;99.90
37642;DHT22;23486;51.956;5.888;2023-03-14T02:45:58;9.80;99.90
37642;DHT22;23486;51.956;5.888;2023-03-14T02:48:28;9.80;99.90
37642;DHT22;23486;51.956;5.888;2023-03-14T02:50:57;9.80;99.90
37642;DHT22;23486;51.956;5.888;2023-03-14T02:53:31;9.80;99.90
37642;DHT22;23486;51.956;5.888;2023-03-14T02:55:57;9.80;99.90
37642;DHT22;23486;51.956;5.888;2023-03-14T02:58:23;9.80;99.90
37642;DHT22;23486;51.956;5.888;2023-03-14T03:00:48;9.90;99.90
37642;DHT22;23486;51.956;5.888;2023-03-14T03:03:14;9.80;99.90
37642;DHT22;23486;51.956;5.888;2023-03-14T03:05:40;9.80;99.90
37642;DHT22;23486;51.956;5.888;2023-03-14T03:08:06;9.80;99.90
37642;DHT22;23486;51.956;5.888;2023-03-14T03:10:32;9.80;99.90
37642;DHT22;23486;51.956;5.888;2023-03-14T03:12:57;9.80;99.90
37642;DHT22;23486;51.956;5.888;2023-03-14T03:15:24;9.80;99.90
37642;DHT22;23486;51.956;5.888;2023-03-14T03:17:49;9.80;99.90
37642;DHT22;23486;51.956;5.888;2023-03-14T03:20:15;9.80;99.90
37642;DHT22;23486;51.956;5.888;2023-03-14T03:22:40;9.80;99.90
37642;DHT22;23486;51.956;5.888;2023-03-14T03:25:07;9.70;99.90
37642;DHT22;23486;51.956;5.888;2023-03-14T03:27:34;9.70;99.90
37642;DHT22;23486;51.956;5.888;2023-03-14T03:30:01;9.70;99.90
37642;DHT22;23486;51.956;5.888;2023-03-14T03:32:27;9.70;99.90
37642;DHT22;23486;51.956;5.888;2023-03-14T03:34:53;9.80;99.90
37642;DHT22;23486;51.956;5.888;2023-03-14T03:37:18;9.80;99.90
37642;DHT22;23486;51.956;5.888;2023-03-14T03:39:44;9.80;99.90
37642;DHT22;23486;51.956;5.888;2023-03-14T03:42:10;9.90;99.90
37642;DHT22;23486;51.956;5.888;2023-03-14T03:44:36;9.90;99.90
37642;DHT22;23486;51.956;5.888;2023-03-14T03:47:02;9.90;99.90
37642;DHT22;23486;51.956;5.888;2023-03-14T03:49:31;9.90;99.90
37642;DHT22;23486;51.956;5.888;2023-03-14T03:51:57;10.00;99.90
37642;DHT22;23486;51.956;5.888;2023-03-14T03:54:23;9.90;99.90
37642;DHT22;23486;51.956;5.888;2023-03-14T03:56:48;10.00;99.90
37642;DHT22;23486;51.956;5.888;2023-03-14T03:59:14;10.00;99.90
37642;DHT22;23486;51.956;5.888;2023-03-14T04:01:40;10.00;99.90
37642;DHT22;23486;51.956;5.888;2023-03-14T04:04:05;10.10;99.90
37642;DHT22;23486;51.956;5.888;2023-03-14T04:06:32;10.10;99.90
37642;DHT22;23486;51.956;5.888;2023-03-14T04:08:58;10.10;99.90
37642;DHT22;23486;51.956;5.888;2023-03-14T04:11:24;10.10;99.90
37642;DHT22;23486;51.956;5.888;2023-03-14T04:13:49;10.10;99.90
37642;DHT22;23486;51.956;5.888;2023-03-14T04:16:18;10.10;99.90
37642;DHT22;23486;51.956;5.888;2023-03-14T04:18:44;10.20;99.90
37642;DHT22;23486;51.956;5.888;2023-03-14T04:21:10;10.10;99.90
37642;DHT22;23486;51.956;5.888;2023-03-14T04:23:35;10.20;99.90
37642;DHT22;23486;51.956;5.888;2023-03-14T04:26:02;10.10;99.90
37642;DHT22;23486;51.956;5.888;2023-03-14T04:28:27;10.20;99.90
37642;DHT22;23486;51.956;5.888;2023-03-14T04:30:53;10.20;99.90
37642;DHT22;23486;51.956;5.888;2023-03-14T04:33:18;10.20;99.90
37642;DHT22;23486;51.956;5.888;2023-03-14T04:35:45;10.20;99.90
37642;DHT22;23486;51.956;5.888;2023-03-14T04:38:10;10.20;99.90
37642;DHT22;23486;51.956;5.888;2023-03-14T04:40:37;10.20;99.90
37642;DHT22;23486;51.956;5.888;2023-03-14T04:43:03;10.10;99.90
37642;DHT22;23486;51.956;5.888;2023-03-14T04:45:29;10.20;99.90
37642;DHT22;23486;51.956;5.888;2023-03-14T04:47:54;10.20;99.90
37642;DHT22;23486;51.956;5.888;2023-03-14T04:50:20;10.20;99.90
37642;DHT22;23486;51.956;5.888;2023-03-14T04:52:45;10.20;99.90
37642;DHT22;23486;51.956;5.888;2023-03-14T04:55:11;10.20;99.90
37642;DHT22;23486;51.956;5.888;2023-03-14T04:57:37;10.20;99.90
37642;DHT22;23486;51.956;5.888;2023-03-14T05:00:03;10.30;99.90
37642;DHT22;23486;51.956;5.888;2023-03-14T05:02:35;10.30;99.90
37642;DHT22;23486;51.956;5.888;2023-03-14T05:05:01;10.30;99.90
37642;DHT22;23486;51.956;5.888;2023-03-14T05:07:26;10.30;99.90
37642;DHT22;23486;51.956;5.888;2023-03-14T05:09:52;10.30;99.90
37642;DHT22;23486;51.956;5.888;2023-03-14T05:12:19;10.30;99.90
37642;DHT22;23486;51.956;5.888;2023-03-14T05:14:45;10.30;99.90
37642;DHT22;23486;51.956;5.888;2023-03-14T05:17:11;10.30;99.90
37642;DHT22;23486;51.956;5.888;2023-03-14T05:19:38;10.20;99.90
37642;DHT22;23486;51.956;5.888;2023-03-14T05:22:04;10.20;99.90
37642;DHT22;23486;51.956;5.888;2023-03-14T05:24:29;10.20;99.90
37642;DHT22;23486;51.956;5.888;2023-03-14T05:26:55;10.10;99.90
37642;DHT22;23486;51.956;5.888;2023-03-14T05:29:20;10.10;99.90
37642;DHT22;23486;51.956;5.888;2023-03-14T05:31:49;10.20;99.90
37642;DHT22;23486;51.956;5.888;2023-03-14T05:34:15;10.10;99.90
37642;DHT22;23486;51.956;5.888;2023-03-14T05:36:40;10.10;99.90
37642;DHT22;23486;51.956;5.888;2023-03-14T05:39:06;10.10;99.90
37642;DHT22;23486;51.956;5.888;2023-03-14T05:41:32;10.00;99.90
37642;DHT22;23486;51.956;5.888;2023-03-14T05:43:57;10.10;99.90
37642;DHT22;23486;51.956;5.888;2023-03-14T05:46:23;10.00;99.90
37642;DHT22;23486;51.956;5.888;2023-03-14T05:48:48;10.10;99.90
37642;DHT22;23486;51.956;5.888;2023-03-14T05:51:14;10.10;99.90
37642;DHT22;23486;51.956;5.888;2023-03-14T05:53:39;10.10;99.90
37642;DHT22;23486;51.956;5.888;2023-03-14T05:56:05;10.00;99.90
37642;DHT22;23486;51.956;5.888;2023-03-14T05:58:31;10.00;99.90
37642;DHT22;23486;51.956;5.888;2023-03-14T06:00:57;10.00;99.90
37642;DHT22;23486;51.956;5.888;2023-03-14T06:03:22;10.00;99.90
37642;DHT22;23486;51.956;5.888;2023-03-14T06:05:50;10.00;99.90
37642;DHT22;23486;51.956;5.888;2023-03-14T06:08:16;9.80;99.90
37642;DHT22;23486;51.956;5.888;2023-03-14T06:10:42;9.90;99.90
37642;DHT22;23486;51.956;5.888;2023-03-14T06:13:07;9.90;99.90
37642;DHT22;23486;51.956;5.888;2023-03-14T06:15:33;9.90;99.90
37642;DHT22;23486;51.956;5.888;2023-03-14T06:17:58;9.90;99.90
37642;DHT22;23486;51.956;5.888;2023-03-14T06:20:24;9.90;99.90
37642;DHT22;23486;51.956;5.888;2023-03-14T06:22:49;9.90;99.90
37642;DHT22;23486;51.956;5.888;2023-03-14T06:25:18;9.90;99.90
37642;DHT22;23486;51.956;5.888;2023-03-14T06:27:44;9.90;99.90
37642;DHT22;23486;51.956;5.888;2023-03-14T06:30:12;9.80;99.90
37642;DHT22;23486;51.956;5.888;2023-03-14T06:32:38;9.80;99.90
37642;DHT22;23486;51.956;5.888;2023-03-14T06:35:04;9.90;99.90
37642;DHT22;23486;51.956;5.888;2023-03-14T06:37:30;9.80;99.90
37642;DHT22;23486;51.956;5.888;2023-03-14T06:39:56;9.80;99.90
37642;DHT22;23486;51.956;5.888;2023-03-14T06:42:21;9.90;99.90
37642;DHT22;23486;51.956;5.888;2023-03-14T06:44:47;9.80;99.90
37642;DHT22;23486;51.956;5.888;2023-03-14T06:47:13;9.80;99.90
37642;DHT22;23486;51.956;5.888;2023-03-14T06:49:39;9.80;99.90
37642;DHT22;23486;51.956;5.888;2023-03-14T06:52:04;9.80;99.90
37642;DHT22;23486;51.956;5.888;2023-03-14T06:54:30;9.80;99.90
37642;DHT22;23486;51.956;5.888;2023-03-14T06:56:56;9.80;99.90
37642;DHT22;23486;51.956;5.888;2023-03-14T06:59:21;9.90;99.90
37642;DHT22;23486;51.956;5.888;2023-03-14T07:01:47;9.90;99.90
37642;DHT22;23486;51.956;5.888;2023-03-14T07:04:13;9.90;99.90
37642;DHT22;23486;51.956;5.888;2023-03-14T07:06:39;10.00;99.90
37642;DHT22;23486;51.956;5.888;2023-03-14T07:09:10;10.00;99.90
37642;DHT22;23486;51.956;5.888;2023-03-14T07:11:38;10.00;99.90
37642;DHT22;23486;51.956;5.888;2023-03-14T07:14:04;10.10;99.90
37642;DHT22;23486;51.956;5.888;2023-03-14T07:16:30;10.10;99.90
37642;DHT22;23486;51.956;5.888;2023-03-14T07:18:58;10.10;99.90
37642;DHT22;23486;51.956;5.888;2023-03-14T07:21:24;10.10;99.90
37642;DHT22;23486;51.956;5.888;2023-03-14T07:23:50;10.10;99.90
37642;DHT22;23486;51.956;5.888;2023-03-14T07:26:18;10.10;99.90
37642;DHT22;23486;51.956;5.888;2023-03-14T07:28:43;10.10;99.90
37642;DHT22;23486;51.956;5.888;2023-03-14T07:31:09;10.00;99.90
37642;DHT22;23486;51.956;5.888;2023-03-14T07:33:35;10.00;99.90
37642;DHT22;23486;51.956;5.888;2023-03-14T07:36:00;9.90;99.90
37642;DHT22;23486;51.956;5.888;2023-03-14T07:38:26;9.80;99.90
37642;DHT22;23486;51.956;5.888;2023-03-14T07:40:58;9.70;99.90
37642;DHT22;23486;51.956;5.888;2023-03-14T07:43:24;9.60;99.90
37642;DHT22;23486;51.956;5.888;2023-03-14T07:45:50;9.50;99.90
37642;DHT22;23486;51.956;5.888;2023-03-14T07:48:15;9.40;99.90
37642;DHT22;23486;51.956;5.888;2023-03-14T07:50:41;9.30;99.90
37642;DHT22;23486;51.956;5.888;2023-03-14T07:53:06;9.10;99.90
37642;DHT22;23486;51.956;5.888;2023-03-14T07:55:32;8.80;99.90
37642;DHT22;23486;51.956;5.888;2023-03-14T07:57:58;8.60;99.90
37642;DHT22;23486;51.956;5.888;2023-03-14T08:00:23;8.50;99.90
37642;DHT22;23486;51.956;5.888;2023-03-14T08:02:49;8.30;99.90
37642;DHT22;23486;51.956;5.888;2023-03-14T08:05:14;8.30;99.90
37642;DHT22;23486;51.956;5.888;2023-03-14T08:07:44;8.20;99.90
37642;DHT22;23486;51.956;5.888;2023-03-14T08:10:10;8.20;99.90
37642;DHT22;23486;51.956;5.888;2023-03-14T08:12:36;8.10;99.90
37642;DHT22;23486;51.956;5.888;2023-03-14T08:15:01;8.10;99.90
37642;DHT22;23486;51.956;5.888;2023-03-14T08:17:27;7.90;99.90
37642;DHT22;23486;51.956;5.888;2023-03-14T08:19:53;7.90;99.90
37642;DHT22;23486;51.956;5.888;2023-03-14T08:22:18;7.90;99.90
37642;DHT22;23486;51.956;5.888;2023-03-14T08:24:44;7.90;99.90
37642;DHT22;23486;51.956;5.888;2023-03-14T08:27:10;7.80;99.90
37642;DHT22;23486;51.956;5.888;2023-03-14T08:29:35;7.80;99.90
37642;DHT22;23486;51.956;5.888;2023-03-14T08:32:01;7.80;99.90
37642;DHT22;23486;51.956;5.888;2023-03-14T08:34:26;7.80;99.90
37642;DHT22;23486;51.956;5.888;2023-03-14T08:36:52;7.90;99.90
37642;DHT22;23486;51.956;5.888;2023-03-14T08:39:17;7.90;99.90
37642;DHT22;23486;51.956;5.888;2023-03-14T08:41:43;7.90;99.90
37642;DHT22;23486;51.956;5.888;2023-03-14T08:44:10;7.80;99.90
37642;DHT22;23486;51.956;5.888;2023-03-14T08:46:39;7.70;99.90
37642;DHT22;23486;51.956;5.888;2023-03-14T08:49:04;7.60;99.90
37642;DHT22;23486;51.956;5.888;2023-03-14T08:51:30;7.40;99.90
37642;DHT22;23486;51.956;5.888;2023-03-14T08:53:56;7.10;99.90
37642;DHT22;23486;51.956;5.888;2023-03-14T08:56:21;7.10;99.90
37642;DHT22;23486;51.956;5.888;2023-03-14T08:58:47;7.00;99.90
37642;DHT22;23486;51.956;5.888;2023-03-14T09:01:12;6.90;99.90
37642;DHT22;23486;51.956;5.888;2023-03-14T09:03:38;6.80;99.90
37642;DHT22;23486;51.956;5.888;2023-03-14T09:06:08;6.80;99.90
37642;DHT22;23486;51.956;5.888;2023-03-14T09:08:35;6.70;99.90
37642;DHT22;23486;51.956;5.888;2023-03-14T09:11:00;6.70;99.90
37642;DHT22;23486;51.956;5.888;2023-03-14T09:13:26;6.70;99.90
37642;DHT22;23486;51.956;5.888;2023-03-14T09:15:53;6.80;99.90
37642;DHT22;23486;51.956;5.888;2023-03-14T09:18:19;6.90;99.90
37642;DHT22;23486;51.956;5.888;2023-03-14T09:20:44;7.00;99.90
37642;DHT22;23486;51.956;5.888;2023-03-14T09:23:10;6.90;99.90
37642;DHT22;23486;51.956;5.888;2023-03-14T09:25:36;6.80;99.90
37642;DHT22;23486;51.956;5.888;2023-03-14T09:28:01;6.60;99.90
37642;DHT22;23486;51.956;5.888;2023-03-14T09:30:27;6.60;99.90
37642;DHT22;23486;51.956;5.888;2023-03-14T09:32:53;6.60;99.90
37642;DHT22;23486;51.956;5.888;2023-03-14T09:35:18;6.50;99.90
37642;DHT22;23486;51.956;5.888;2023-03-14T09:37:44;6.70;99.90
37642;DHT22;23486;51.956;5.888;2023-03-14T09:40:15;6.70;99.90
37642;DHT22;23486;51.956;5.888;2023-03-14T09:42:41;6.80;99.90
37642;DHT22;23486;51.956;5.888;2023-03-14T09:45:31;6.90;99.90
37642;DHT22;23486;51.956;5.888;2023-03-14T09:47:58;6.90;99.90
37642;DHT22;23486;51.956;5.888;2023-03-14T09:50:26;7.10;99.90
37642;DHT22;23486;51.956;5.888;2023-03-14T09:52:56;7.10;99.90
37642;DHT22;23486;51.956;5.888;2023-03-14T09:55:24;7.00;99.90
37642;DHT22;23486;51.956;5.888;2023-03-14T09:57:54;6.90;99.90
37642;DHT22;23486;51.956;5.888;2023-03-14T10:00:25;6.90;99.90
37642;DHT22;23486;51.956;5.888;2023-03-14T10:03:05;6.90;99.90
37642;DHT22;23486;51.956;5.888;2023-03-14T10:05:32;6.90;99.90
37642;DHT22;23486;51.956;5.888;2023-03-14T10:07:58;6.90;99.90
37642;DHT22;23486;51.956;5.888;2023-03-14T10:10:25;6.90;99.90
37642;DHT22;23486;51.956;5.888;2023-03-14T10:12:57;6.80;99.90
37642;DHT22;23486;51.956;5.888;2023-03-14T10:15:26;6.80;99.90
37642;DHT22;23486;51.956;5.888;2023-03-14T10:17:52;6.90;99.90
37642;DHT22;23486;51.956;5.888;2023-03-14T10:20:31;6.90;99.90
37642;DHT22;23486;51.956;5.888;2023-03-14T10:23:20;7.00;99.90
37642;DHT22;23486;51.956;5.888;2023-03-14T10:26:16;7.10;99.90
37642;DHT22;23486;51.956;5.888;2023-03-14T10:28:52;7.20;99.90
37642;DHT22;23486;51.956;5.888;2023-03-14T10:31:18;7.20;99.90
37642;DHT22;23486;51.956;5.888;2023-03-14T10:34:02;7.20;99.90
37642;DHT22;23486;51.956;5.888;2023-03-14T10:36:30;7.20;99.90
37642;DHT22;23486;51.956;5.888;2023-03-14T10:39:16;7.30;99.90
37642;DHT22;23486;51.956;5.888;2023-03-14T10:41:48;7.30;99.90
37642;DHT22;23486;51.956;5.888;2023-03-14T10:44:18;7.40;99.90
37642;DHT22;23486;51.956;5.888;2023-03-14T10:46:45;7.40;99.90
37642;DHT22;23486;51.956;5.888;2023-03-14T10:49:27;7.40;99.90
37642;DHT22;23486;51.956;5.888;2023-03-14T10:51:53;7.40;99.90
37642;DHT22;23486;51.956;5.888;2023-03-14T10:54:21;7.50;99.90
37642;DHT22;23486;51.956;5.888;2023-03-14T10:56:57;7.50;99.90
37642;DHT22;23486;51.956;5.888;2023-03-14T10:59:23;7.50;99.90
37642;DHT22;23486;51.956;5.888;2023-03-14T11:07:42;7.40;99.90
37642;DHT22;23486;51.956;5.888;2023-03-14T11:15:31;6.40;99.90
37642;DHT22;23486;51.956;5.888;2023-03-14T11:18:06;6.40;99.90
37642;DHT22;23486;51.956;5.888;2023-03-14T11:20:46;6.30;99.90
37642;DHT22;23486;51.956;5.888;2023-03-14T11:23:38;6.40;99.90
37642;DHT22;23486;51.956;5.888;2023-03-14T11:28:49;6.50;99.90
37642;DHT22;23486;51.956;5.888;2023-03-14T11:31:34;6.70;99.90
37642;DHT22;23486;51.956;5.888;2023-03-14T11:34:01;6.60;99.90
37642;DHT22;23486;51.956;5.888;2023-03-14T11:39:26;6.60;99.90
37642;DHT22;23486;51.956;5.888;2023-03-14T11:41:57;6.60;99.90
37642;DHT22;23486;51.956;5.888;2023-03-14T11:44:34;6.70;99.90
37642;DHT22;23486;51.956;5.888;2023-03-14T11:47:05;6.80;99.90
37642;DHT22;23486;51.956;5.888;2023-03-14T11:49:34;6.90;99.90
37642;DHT22;23486;51.956;5.888;2023-03-14T11:52:10;7.00;99.90
37642;DHT22;23486;51.956;5.888;2023-03-14T11:54:53;7.00;99.90
37642;DHT22;23486;51.956;5.888;2023-03-14T11:57:21;7.00;99.90
37642;DHT22;23486;51.956;5.888;2023-03-14T12:05:50;7.00;99.90
37642;DHT22;23486;51.956;5.888;2023-03-14T12:10:58;7.20;99.90
37642;DHT22;23486;51.956;5.888;2023-03-14T12:13:29;7.30;99.90
37642;DHT22;23486;51.956;5.888;2023-03-14T12:16:00;7.30;99.90
37642;DHT22;23486;51.956;5.888;2023-03-14T12:18:31;7.40;99.90
37642;DHT22;23486;51.956;5.888;2023-03-14T12:21:00;7.50;99.90
37642;DHT22;23486;51.956;5.888;2023-03-14T12:23:28;7.70;99.90
37642;DHT22;23486;51.956;5.888;2023-03-14T12:28:38;7.70;99.90
37642;DHT22;23486;51.956;5.888;2023-03-14T12:39:46;7.50;99.90
37642;DHT22;23486;51.956;5.888;2023-03-14T12:45:27;7.80;99.90
37642;DHT22;23486;51.956;5.888;2023-03-14T12:48:15;7.80;99.90
37642;DHT22;23486;51.956;5.888;2023-03-14T12:50:46;7.80;99.00
37642;DHT22;23486;51.956;5.888;2023-03-14T12:53:22;7.90;99.30
37642;DHT22;23486;51.956;5.888;2023-03-14T12:57:00;7.90;97.90
37642;DHT22;23486;51.956;5.888;2023-03-14T12:58:58;7.90;98.70
37642;DHT22;23486;51.956;5.888;2023-03-14T13:01:26;8.00;98.50
37642;DHT22;23486;51.956;5.888;2023-03-14T13:03:55;8.00;98.70
37642;DHT22;23486;51.956;5.888;2023-03-14T13:11:54;7.90;98.10
37642;DHT22;23486;51.956;5.888;2023-03-14T13:14:20;8.00;96.80
37642;DHT22;23486;51.956;5.888;2023-03-14T13:16:47;8.00;96.90
37642;DHT22;23486;51.956;5.888;2023-03-14T13:19:20;8.00;97.00
37642;DHT22;23486;51.956;5.888;2023-03-14T13:21:47;8.10;97.70
37642;DHT22;23486;51.956;5.888;2023-03-14T13:24:23;8.20;97.90
37642;DHT22;23486;51.956;5.888;2023-03-14T13:26:49;8.30;97.70
37642;DHT22;23486;51.956;5.888;2023-03-14T13:29:31;8.50;97.70
37642;DHT22;23486;51.956;5.888;2023-03-14T13:32:02;8.50;96.40
37642;DHT22;23486;51.956;5.888;2023-03-14T13:34:33;8.50;95.50
37642;DHT22;23486;51.956;5.888;2023-03-14T13:36:59;8.40;94.90
37642;DHT22;23486;51.956;5.888;2023-03-14T13:39:27;8.40;97.60
37642;DHT22;23486;51.956;5.888;2023-03-14T13:41:57;8.50;96.60
37642;DHT22;23486;51.956;5.888;2023-03-14T13:47:01;8.60;96.20
37642;DHT22;23486;51.956;5.888;2023-03-14T13:49:29;8.60;92.90
37642;DHT22;23486;51.956;5.888;2023-03-14T13:51:57;8.50;94.30
37642;DHT22;23486;51.956;5.888;2023-03-14T13:54:26;8.50;94.20
37642;DHT22;23486;51.956;5.888;2023-03-14T13:57:03;8.50;92.40
37642;DHT22;23486;51.956;5.888;2023-03-14T13:59:31;8.50;93.70
37642;DHT22;23486;51.956;5.888;2023-03-14T14:01:58;8.60;94.90
37642;DHT22;23486;51.956;5.888;2023-03-14T14:04:26;8.60;93.90
37642;DHT22;23486;51.956;5.888;2023-03-14T14:06:57;8.90;94.90
37642;DHT22;23486;51.956;5.888;2023-03-14T14:14:48;9.00;93.50
37642;DHT22;23486;51.956;5.888;2023-03-14T14:17:21;8.90;93.70
37642;DHT22;23486;51.956;5.888;2023-03-14T14:19:49;8.80;93.60
37642;DHT22;23486;51.956;5.888;2023-03-14T14:22:16;8.80;93.60
37642;DHT22;23486;51.956;5.888;2023-03-14T14:24:42;8.80;91.60
37642;DHT22;23486;51.956;5.888;2023-03-14T14:27:17;8.70;92.70
37642;DHT22;23486;51.956;5.888;2023-03-14T14:29:57;8.70;91.20
37642;DHT22;23486;51.956;5.888;2023-03-14T14:32:23;8.70;91.30
37642;DHT22;23486;51.956;5.888;2023-03-14T14:34:56;8.60;92.30
37642;DHT22;23486;51.956;5.888;2023-03-14T14:37:27;8.50;91.10
37642;DHT22;23486;51.956;5.888;2023-03-14T14:39:59;8.30;91.00
37642;DHT22;23486;51.956;5.888;2023-03-14T14:42:29;8.20;88.00
37642;DHT22;23486;51.956;5.888;2023-03-14T14:44:56;8.00;90.30
37642;DHT22;23486;51.956;5.888;2023-03-14T14:47:24;7.90;86.70
37642;DHT22;23486;51.956;5.888;2023-03-14T14:49:52;7.80;87.90
37642;DHT22;23486;51.956;5.888;2023-03-14T14:52:36;7.90;90.00
37642;DHT22;23486;51.956;5.888;2023-03-14T14:55:29;7.90;90.60
37642;DHT22;23486;51.956;5.888;2023-03-14T14:57:55;7.90;91.40
37642;DHT22;23486;51.956;5.888;2023-03-14T15:00:25;7.80;91.70
37642;DHT22;23486;51.956;5.888;2023-03-14T15:02:54;7.80;91.90
37642;DHT22;23486;51.956;5.888;2023-03-14T15:05:22;7.80;90.60
37642;DHT22;23486;51.956;5.888;2023-03-14T15:07:49;7.80;91.00
37642;DHT22;23486;51.956;5.888;2023-03-14T15:10:19;7.90;88.80
37642;DHT22;23486;51.956;5.888;2023-03-14T15:12:44;7.90;88.50
37642;DHT22;23486;51.956;5.888;2023-03-14T15:15:11;7.90;88.60
37642;DHT22;23486;51.956;5.888;2023-03-14T15:17:37;7.90;88.40
37642;DHT22;23486;51.956;5.888;2023-03-14T15:20:04;7.80;90.70
37642;DHT22;23486;51.956;5.888;2023-03-14T15:22:30;7.80;91.50
37642;DHT22;23486;51.956;5.888;2023-03-14T15:24:56;7.80;92.10
37642;DHT22;23486;51.956;5.888;2023-03-14T15:27:22;7.80;90.90
37642;DHT22;23486;51.956;5.888;2023-03-14T15:29:48;7.70;90.80
37642;DHT22;23486;51.956;5.888;2023-03-14T15:32:15;7.70;91.60
37642;DHT22;23486;51.956;5.888;2023-03-14T15:34:42;7.70;91.60
37642;DHT22;23486;51.956;5.888;2023-03-14T15:37:12;7.70;92.80
37642;DHT22;23486;51.956;5.888;2023-03-14T15:39:39;7.80;93.00
37642;DHT22;23486;51.956;5.888;2023-03-14T15:42:05;7.70;93.40
37642;DHT22;23486;51.956;5.888;2023-03-14T15:44:30;7.70;93.30
37642;DHT22;23486;51.956;5.888;2023-03-14T15:46:56;7.70;94.40
37642;DHT22;23486;51.956;5.888;2023-03-14T15:49:22;7.70;94.10
37642;DHT22;23486;51.956;5.888;2023-03-14T15:51:47;7.60;95.50
37642;DHT22;23486;51.956;5.888;2023-03-14T15:54:14;7.70;93.70
37642;DHT22;23486;51.956;5.888;2023-03-14T15:56:39;7.60;94.00
37642;DHT22;23486;51.956;5.888;2023-03-14T15:59:05;7.50;93.50
37642;DHT22;23486;51.956;5.888;2023-03-14T16:01:31;7.50;94.60
37642;DHT22;23486;51.956;5.888;2023-03-14T16:03:56;7.50;95.80
37642;DHT22;23486;51.956;5.888;2023-03-14T16:06:22;7.50;95.40
37642;DHT22;23486;51.956;5.888;2023-03-14T16:08:47;7.40;92.70
37642;DHT22;23486;51.956;5.888;2023-03-14T16:11:14;7.30;93.80
37642;DHT22;23486;51.956;5.888;2023-03-14T16:13:41;7.30;92.80
37642;DHT22;23486;51.956;5.888;2023-03-14T16:16:08;7.20;92.90
37642;DHT22;23486;51.956;5.888;2023-03-14T16:18:35;7.10;93.80
37642;DHT22;23486;51.956;5.888;2023-03-14T16:21:11;7.20;93.90
37642;DHT22;23486;51.956;5.888;2023-03-14T16:23:37;7.20;94.50
37642;DHT22;23486;51.956;5.888;2023-03-14T16:26:08;7.20;95.00
37642;DHT22;23486;51.956;5.888;2023-03-14T16:28:34;7.20;95.80
37642;DHT22;23486;51.956;5.888;2023-03-14T16:31:05;7.20;95.40
37642;DHT22;23486;51.956;5.888;2023-03-14T16:33:32;7.10;94.70
37642;DHT22;23486;51.956;5.888;2023-03-14T16:36:00;7.10;93.50
37642;DHT22;23486;51.956;5.888;2023-03-14T16:38:26;7.00;93.20
37642;DHT22;23486;51.956;5.888;2023-03-14T16:41:16;7.00;94.30
37642;DHT22;23486;51.956;5.888;2023-03-14T16:43:42;6.90;94.00
37642;DHT22;23486;51.956;5.888;2023-03-14T16:46:13;6.90;94.40
37642;DHT22;23486;51.956;5.888;2023-03-14T16:48:39;6.90;94.10
37642;DHT22;23486;51.956;5.888;2023-03-14T16:51:05;6.80;95.10